CST,Max TemperatureF,Mean TemperatureF,Min TemperatureF,Max Dew PointF,MeanDew PointF,Min DewpointF,Max Humidity, Mean Humidity, Min Humidity, Max Sea Level PressureIn, Mean Sea Level PressureIn, Min Sea Level PressureIn, Max VisibilityMiles, Mean VisibilityMiles, Min VisibilityMiles, Max Wind SpeedMPH, Mean Wind SpeedMPH, Max Gust SpeedMPH,PrecipitationIn, CloudCover, Events, WindDirDegrees
2013-12-1,47,34,20,28,25,19,96,71,45,30.21,30.08,29.90,10,10,8,10,4,13,0.00,5,,29
2013-12-2,56,43,30,33,31,26,85,63,41,29.86,29.64,29.54,10,9,6,16,5,20,0.00,5,,152
2013-12-3,43,38,32,36,32,29,89,78,67,29.71,29.60,29.52,10,7,4,17,9,22,0.00,7,,9
2013-12-4,35,26,16,33,18,6,96,79,62,30.12,29.79,29.63,10,6,2,26,18,33,0.01,8,Rain-Snow,320
2013-12-5,17,13,8,6,0,-6,73,62,51,30.51,30.34,30.09,10,10,9,25,15,33,T,5,,320
2013-12-6,12,6,-1,-5,-6,-9,79,63,46,30.80,30.66,30.51,10,10,10,22,11,24,0.00,2,,341
2013-12-7,13,5,-4,4,-4,-9,79,63,46,30.84,30.69,30.45,10,9,2,15,5,19,T,5,Snow,33
2013-12-8,19,15,11,12,9,1,88,75,61,30.45,30.17,30.02,10,3,0,17,9,21,0.13,7,Snow,104
2013-12-9,13,6,-2,4,-3,-9,83,68,53,30.42,30.31,30.16,10,10,10,17,11,23,0.00,1,,258
2013-12-10,29,20,11,25,14,4,74,60,46,30.30,30.22,30.13,10,8,1,17,8,24,0.02,6,Snow,242
2013-12-11,29,16,3,21,1,-6,85,69,52,30.74,30.58,30.28,10,10,7,29,12,38,T,2,Snow,323
2013-12-12,32,19,6,19,10,-1,84,69,53,30.53,30.34,30.14,10,10,7,13,8,14,0.00,2,,155
2013-12-13,34,26,18,23,19,14,84,73,61,30.14,30.03,29.95,10,8,6,21,9,26,0.00,6,,66
2013-12-14,22,17,12,16,12,10,88,78,67,30.28,30.22,30.10,10,9,6,21,11,25,T,7,Snow,339
2013-12-15,27,22,16,18,14,10,84,73,62,30.21,30.10,30.03,10,9,7,9,4,11,0.00,7,,96
2013-12-16,48,31,13,30,19,9,85,67,49,30.19,30.09,30.04,10,9,7,22,6,27,0.00,4,,53
2013-12-17,42,33,24,27,20,13,85,58,30,30.31,30.24,30.16,10,10,10,25,8,32,0.00,2,,324
2013-12-18,49,37,24,29,24,18,85,66,46,30.11,29.85,29.74,10,10,10,17,8,20,0.00,4,,160
2013-12-19,34,27,20,26,22,17,92,77,61,29.93,29.85,29.78,10,8,4,22,14,27,T,8,,1
2013-12-20,20,17,14,16,12,10,92,86,80,30.04,29.97,29.90,10,6,2,24,12,31,T,8,Snow,335
2013-12-21,25,22,18,18,15,12,81,76,71,29.96,29.89,29.83,10,9,7,22,8,26,0.00,8,,17
2013-12-22,22,14,6,18,10,0,84,70,56,30.47,30.15,29.89,10,8,1,25,15,30,0.04,5,Snow,337
2013-12-23,12,6,-1,-2,-7,-10,79,59,38,30.69,30.63,30.48,10,10,10,22,11,26,0.00,2,,333
2013-12-24,25,12,-2,20,6,-8,88,75,61,30.62,30.33,30.18,10,10,6,29,13,37,T,7,,172
2013-12-25,43,31,19,28,20,16,84,65,45,30.36,30.29,30.22,10,10,7,31,11,37,0.00,4,,307
2013-12-26,48,34,19,22,19,16,91,61,31,30.29,30.21,30.14,10,10,10,13,6,13,0.00,1,,168
2013-12-27,61,40,19,30,23,17,92,58,23,30.30,30.19,30.09,10,10,10,18,8,22,0.00,1,,165
2013-12-28,58,37,16,29,23,7,85,55,25,30.18,29.95,29.76,10,10,10,39,15,49,T,2,Snow,180
2013-12-29,16,9,2,3,-9,-15,69,50,30,30.47,30.37,30.20,10,10,7,35,17,43,T,4,Snow,341
2013-12-30,34,19,4,20,3,-9,76,58,39,30.37,30.24,30.09,10,10,10,30,12,37,0.00,6,,195
2013-12-31,35,22,8,18,7,3,83,67,51,30.34,30.23,30.08,10,10,10,24,8,30,0.00,4,,58